sensor_id;sensor_type;location;lat;lon;timestamp;P1;durP1;ratioP1;P2;durP2;ratioP2
25932;SDS011;13731;51.166;4.474;2023-02-04T00:01:49;104.80;;;96.95;;
25932;SDS011;13731;51.166;4.474;2023-02-04T00:04:15;106.20;;;97.32;;
25932;SDS011;13731;51.166;4.474;2023-02-04T00:06:41;101.22;;;93.30;;
25932;SDS011;13731;51.166;4.474;2023-02-04T00:09:07;108.95;;;100.40;;
25932;SDS011;13731;51.166;4.474;2023-02-04T00:11:33;118.68;;;109.38;;
25932;SDS011;13731;51.166;4.474;2023-02-04T00:13:59;119.05;;;109.97;;
25932;SDS011;13731;51.166;4.474;2023-02-04T00:16:25;120.05;;;110.38;;
25932;SDS011;13731;51.166;4.474;2023-02-04T00:18:50;119.20;;;109.70;;
25932;SDS011;13731;51.166;4.474;2023-02-04T00:21:16;115.00;;;104.85;;
25932;SDS011;13731;51.166;4.474;2023-02-04T00:23:42;124.95;;;114.50;;
25932;SDS011;13731;51.166;4.474;2023-02-04T00:26:08;127.05;;;115.60;;
25932;SDS011;13731;51.166;4.474;2023-02-04T00:28:34;121.95;;;112.07;;
25932;SDS011;13731;51.166;4.474;2023-02-04T00:31:00;129.98;;;117.97;;
25932;SDS011;13731;51.166;4.474;2023-02-04T00:33:26;126.20;;;114.53;;
25932;SDS011;13731;51.166;4.474;2023-02-04T00:35:53;124.68;;;112.85;;
25932;SDS011;13731;51.166;4.474;2023-02-04T00:38:19;121.45;;;111.07;;
25932;SDS011;13731;51.166;4.474;2023-02-04T00:40:47;116.57;;;106.20;;
25932;SDS011;13731;51.166;4.474;2023-02-04T00:43:12;123.85;;;113.00;;
25932;SDS011;13731;51.166;4.474;2023-02-04T00:45:38;145.27;;;132.60;;
25932;SDS011;13731;51.166;4.474;2023-02-04T00:48:04;142.40;;;130.75;;
25932;SDS011;13731;51.166;4.474;2023-02-04T00:50:31;145.02;;;133.45;;
25932;SDS011;13731;51.166;4.474;2023-02-04T00:53:00;138.98;;;127.30;;
25932;SDS011;13731;51.166;4.474;2023-02-04T00:55:26;126.47;;;115.60;;
25932;SDS011;13731;51.166;4.474;2023-02-04T00:57:52;117.18;;;106.68;;
25932;SDS011;13731;51.166;4.474;2023-02-04T01:00:18;117.50;;;107.70;;
25932;SDS011;13731;51.166;4.474;2023-02-04T01:02:44;109.88;;;101.10;;
25932;SDS011;13731;51.166;4.474;2023-02-04T01:05:10;110.20;;;100.97;;
25932;SDS011;13731;51.166;4.474;2023-02-04T01:07:36;100.97;;;92.32;;
25932;SDS011;13731;51.166;4.474;2023-02-04T01:10:02;104.18;;;95.93;;
25932;SDS011;13731;51.166;4.474;2023-02-04T01:12:28;103.63;;;94.88;;
25932;SDS011;13731;51.166;4.474;2023-02-04T01:14:54;103.03;;;94.05;;
25932;SDS011;13731;51.166;4.474;2023-02-04T01:17:20;103.93;;;95.07;;
25932;SDS011;13731;51.166;4.474;2023-02-04T01:19:46;106.97;;;97.80;;
25932;SDS011;13731;51.166;4.474;2023-02-04T01:22:12;102.72;;;94.53;;
25932;SDS011;13731;51.166;4.474;2023-02-04T01:24:38;106.15;;;96.55;;
25932;SDS011;13731;51.166;4.474;2023-02-04T01:27:36;106.10;;;97.68;;
25932;SDS011;13731;51.166;4.474;2023-02-04T01:30:03;99.60;;;91.22;;
25932;SDS011;13731;51.166;4.474;2023-02-04T01:32:30;97.47;;;89.50;;
25932;SDS011;13731;51.166;4.474;2023-02-04T01:34:56;103.72;;;95.28;;
25932;SDS011;13731;51.166;4.474;2023-02-04T01:37:21;108.72;;;99.82;;
25932;SDS011;13731;51.166;4.474;2023-02-04T01:39:47;105.40;;;96.10;;
25932;SDS011;13731;51.166;4.474;2023-02-04T01:42:13;111.10;;;102.18;;
25932;SDS011;13731;51.166;4.474;2023-02-04T01:44:39;111.72;;;102.70;;
25932;SDS011;13731;51.166;4.474;2023-02-04T01:47:05;106.60;;;97.40;;
25932;SDS011;13731;51.166;4.474;2023-02-04T01:49:31;103.18;;;94.28;;
25932;SDS011;13731;51.166;4.474;2023-02-04T01:51:57;111.10;;;101.82;;
25932;SDS011;13731;51.166;4.474;2023-02-04T01:54:23;101.93;;;92.97;;
25932;SDS011;13731;51.166;4.474;2023-02-04T01:56:50;94.90;;;86.35;;
25932;SDS011;13731;51.166;4.474;2023-02-04T01:59:16;103.30;;;94.07;;
25932;SDS011;13731;51.166;4.474;2023-02-04T02:01:44;99.38;;;90.72;;
25932;SDS011;13731;51.166;4.474;2023-02-04T02:04:13;93.45;;;85.18;;
25932;SDS011;13731;51.166;4.474;2023-02-04T02:06:54;97.60;;;88.88;;
25932;SDS011;13731;51.166;4.474;2023-02-04T02:09:23;92.80;;;84.32;;
25932;SDS011;13731;51.166;4.474;2023-02-04T02:11:50;92.32;;;83.28;;
25932;SDS011;13731;51.166;4.474;2023-02-04T02:14:16;93.95;;;85.03;;
25932;SDS011;13731;51.166;4.474;2023-02-04T02:16:42;104.90;;;94.25;;
25932;SDS011;13731;51.166;4.474;2023-02-04T02:19:11;101.72;;;91.57;;
25932;SDS011;13731;51.166;4.474;2023-02-04T02:21:46;98.78;;;89.55;;
25932;SDS011;13731;51.166;4.474;2023-02-04T02:26:56;100.50;;;90.00;;
25932;SDS011;13731;51.166;4.474;2023-02-04T02:29:26;97.90;;;87.60;;
25932;SDS011;13731;51.166;4.474;2023-02-04T02:31:52;95.18;;;85.30;;
25932;SDS011;13731;51.166;4.474;2023-02-04T02:34:24;96.78;;;87.10;;
25932;SDS011;13731;51.166;4.474;2023-02-04T02:36:51;96.75;;;86.60;;
25932;SDS011;13731;51.166;4.474;2023-02-04T02:39:17;94.38;;;84.70;;
25932;SDS011;13731;51.166;4.474;2023-02-04T02:41:44;94.75;;;85.53;;
25932;SDS011;13731;51.166;4.474;2023-02-04T02:44:10;93.32;;;83.63;;
25932;SDS011;13731;51.166;4.474;2023-02-04T02:46:38;97.20;;;88.13;;
25932;SDS011;13731;51.166;4.474;2023-02-04T02:49:04;97.43;;;87.72;;
25932;SDS011;13731;51.166;4.474;2023-02-04T02:51:31;95.93;;;86.78;;
25932;SDS011;13731;51.166;4.474;2023-02-04T02:53:57;98.43;;;88.38;;
25932;SDS011;13731;51.166;4.474;2023-02-04T02:56:24;99.93;;;90.35;;
25932;SDS011;13731;51.166;4.474;2023-02-04T02:58:51;96.05;;;86.90;;
25932;SDS011;13731;51.166;4.474;2023-02-04T03:01:17;92.85;;;84.18;;
25932;SDS011;13731;51.166;4.474;2023-02-04T03:03:44;93.00;;;84.00;;
25932;SDS011;13731;51.166;4.474;2023-02-04T03:06:20;97.72;;;89.32;;
25932;SDS011;13731;51.166;4.474;2023-02-04T03:08:49;94.15;;;85.07;;
25932;SDS011;13731;51.166;4.474;2023-02-04T03:11:19;86.57;;;79.20;;
25932;SDS011;13731;51.166;4.474;2023-02-04T03:13:46;90.28;;;82.00;;
25932;SDS011;13731;51.166;4.474;2023-02-04T03:16:13;87.65;;;79.13;;
25932;SDS011;13731;51.166;4.474;2023-02-04T03:18:39;86.13;;;78.03;;
25932;SDS011;13731;51.166;4.474;2023-02-04T03:21:05;88.18;;;79.10;;
25932;SDS011;13731;51.166;4.474;2023-02-04T03:23:32;90.90;;;82.30;;
25932;SDS011;13731;51.166;4.474;2023-02-04T03:26:00;87.38;;;78.30;;
25932;SDS011;13731;51.166;4.474;2023-02-04T03:28:28;89.60;;;80.78;;
25932;SDS011;13731;51.166;4.474;2023-02-04T03:30:55;86.97;;;78.50;;
25932;SDS011;13731;51.166;4.474;2023-02-04T03:33:22;84.97;;;76.43;;
25932;SDS011;13731;51.166;4.474;2023-02-04T03:35:50;84.15;;;75.82;;
25932;SDS011;13731;51.166;4.474;2023-02-04T03:38:16;84.90;;;76.50;;
25932;SDS011;13731;51.166;4.474;2023-02-04T03:40:42;91.40;;;81.88;;
25932;SDS011;13731;51.166;4.474;2023-02-04T03:43:09;86.40;;;77.32;;
25932;SDS011;13731;51.166;4.474;2023-02-04T03:45:35;85.65;;;77.20;;
25932;SDS011;13731;51.166;4.474;2023-02-04T03:48:01;92.68;;;83.93;;
25932;SDS011;13731;51.166;4.474;2023-02-04T03:50:26;88.55;;;79.88;;
25932;SDS011;13731;51.166;4.474;2023-02-04T03:52:52;90.05;;;80.90;;
25932;SDS011;13731;51.166;4.474;2023-02-04T03:55:18;85.35;;;77.97;;
25932;SDS011;13731;51.166;4.474;2023-02-04T03:57:44;88.60;;;80.50;;
25932;SDS011;13731;51.166;4.474;2023-02-04T04:00:11;86.93;;;79.03;;
25932;SDS011;13731;51.166;4.474;2023-02-04T04:02:38;91.15;;;82.45;;
25932;SDS011;13731;51.166;4.474;2023-02-04T04:05:05;91.22;;;81.97;;
25932;SDS011;13731;51.166;4.474;2023-02-04T04:07:32;93.28;;;83.43;;
25932;SDS011;13731;51.166;4.474;2023-02-04T04:09:58;90.05;;;80.78;;
25932;SDS011;13731;51.166;4.474;2023-02-04T04:12:24;89.18;;;79.88;;
25932;SDS011;13731;51.166;4.474;2023-02-04T04:14:50;94.10;;;79.60;;
25932;SDS011;13731;51.166;4.474;2023-02-04T04:17:16;82.30;;;73.53;;
25932;SDS011;13731;51.166;4.474;2023-02-04T04:19:41;83.32;;;74.50;;
25932;SDS011;13731;51.166;4.474;2023-02-04T04:22:09;92.00;;;79.28;;
25932;SDS011;13731;51.166;4.474;2023-02-04T04:24:35;88.07;;;79.90;;
25932;SDS011;13731;51.166;4.474;2023-02-04T04:27:01;85.43;;;77.07;;
25932;SDS011;13731;51.166;4.474;2023-02-04T04:29:27;84.80;;;76.63;;
25932;SDS011;13731;51.166;4.474;2023-02-04T04:31:53;86.40;;;78.15;;
25932;SDS011;13731;51.166;4.474;2023-02-04T04:34:19;83.68;;;74.53;;
25932;SDS011;13731;51.166;4.474;2023-02-04T04:36:44;79.85;;;72.13;;
25932;SDS011;13731;51.166;4.474;2023-02-04T04:39:10;78.30;;;71.28;;
25932;SDS011;13731;51.166;4.474;2023-02-04T04:41:36;82.32;;;74.40;;
25932;SDS011;13731;51.166;4.474;2023-02-04T04:44:02;76.72;;;70.03;;
25932;SDS011;13731;51.166;4.474;2023-02-04T04:46:28;77.15;;;69.95;;
25932;SDS011;13731;51.166;4.474;2023-02-04T04:48:54;77.35;;;70.05;;
25932;SDS011;13731;51.166;4.474;2023-02-04T04:51:20;83.32;;;74.75;;
25932;SDS011;13731;51.166;4.474;2023-02-04T04:53:46;79.18;;;71.93;;
25932;SDS011;13731;51.166;4.474;2023-02-04T04:56:12;84.40;;;76.32;;
25932;SDS011;13731;51.166;4.474;2023-02-04T04:58:38;81.35;;;72.50;;
25932;SDS011;13731;51.166;4.474;2023-02-04T05:01:03;84.93;;;76.03;;
25932;SDS011;13731;51.166;4.474;2023-02-04T05:03:29;86.15;;;76.85;;
25932;SDS011;13731;51.166;4.474;2023-02-04T05:05:55;84.68;;;76.70;;
25932;SDS011;13731;51.166;4.474;2023-02-04T05:08:21;78.55;;;70.45;;
25932;SDS011;13731;51.166;4.474;2023-02-04T05:10:47;81.90;;;73.90;;
25932;SDS011;13731;51.166;4.474;2023-02-04T05:13:13;78.30;;;70.28;;
25932;SDS011;13731;51.166;4.474;2023-02-04T05:15:40;83.28;;;74.53;;
25932;SDS011;13731;51.166;4.474;2023-02-04T05:18:06;78.80;;;70.20;;
25932;SDS011;13731;51.166;4.474;2023-02-04T05:20:32;85.32;;;72.75;;
25932;SDS011;13731;51.166;4.474;2023-02-04T05:22:58;84.03;;;75.30;;
25932;SDS011;13731;51.166;4.474;2023-02-04T05:25:27;81.88;;;72.85;;
25932;SDS011;13731;51.166;4.474;2023-02-04T05:27:53;89.35;;;73.60;;
25932;SDS011;13731;51.166;4.474;2023-02-04T05:30:19;89.10;;;72.47;;
25932;SDS011;13731;51.166;4.474;2023-02-04T05:32:45;81.63;;;72.90;;
25932;SDS011;13731;51.166;4.474;2023-02-04T05:35:11;83.70;;;74.45;;
25932;SDS011;13731;51.166;4.474;2023-02-04T05:37:37;81.63;;;72.95;;
25932;SDS011;13731;51.166;4.474;2023-02-04T05:40:03;83.28;;;72.38;;
25932;SDS011;13731;51.166;4.474;2023-02-04T05:42:29;80.22;;;71.72;;
25932;SDS011;13731;51.166;4.474;2023-02-04T05:44:55;83.40;;;74.45;;
25932;SDS011;13731;51.166;4.474;2023-02-04T05:47:21;99.97;;;76.15;;
25932;SDS011;13731;51.166;4.474;2023-02-04T05:49:46;99.15;;;73.07;;
25932;SDS011;13731;51.166;4.474;2023-02-04T05:52:12;96.53;;;78.28;;
25932;SDS011;13731;51.166;4.474;2023-02-04T05:54:38;104.97;;;78.28;;
25932;SDS011;13731;51.166;4.474;2023-02-04T05:57:04;99.97;;;81.47;;
25932;SDS011;13731;51.166;4.474;2023-02-04T05:59:31;95.63;;;77.72;;
25932;SDS011;13731;51.166;4.474;2023-02-04T06:01:56;106.22;;;83.30;;
25932;SDS011;13731;51.166;4.474;2023-02-04T06:04:22;109.00;;;79.72;;
25932;SDS011;13731;51.166;4.474;2023-02-04T06:06:48;122.30;;;89.88;;
25932;SDS011;13731;51.166;4.474;2023-02-04T06:09:14;102.93;;;85.43;;
25932;SDS011;13731;51.166;4.474;2023-02-04T06:11:40;110.78;;;89.88;;
25932;SDS011;13731;51.166;4.474;2023-02-04T06:14:06;107.85;;;87.45;;
25932;SDS011;13731;51.166;4.474;2023-02-04T06:16:32;107.93;;;88.38;;
25932;SDS011;13731;51.166;4.474;2023-02-04T06:18:58;105.47;;;89.97;;
25932;SDS011;13731;51.166;4.474;2023-02-04T06:21:24;100.68;;;89.95;;
25932;SDS011;13731;51.166;4.474;2023-02-04T06:23:50;100.38;;;89.65;;
25932;SDS011;13731;51.166;4.474;2023-02-04T06:26:15;105.63;;;91.90;;
25932;SDS011;13731;51.166;4.474;2023-02-04T06:28:41;104.40;;;90.07;;
25932;SDS011;13731;51.166;4.474;2023-02-04T06:31:07;108.72;;;96.13;;
25932;SDS011;13731;51.166;4.474;2023-02-04T06:33:34;105.80;;;94.60;;
25932;SDS011;13731;51.166;4.474;2023-02-04T06:36:02;110.70;;;98.20;;
25932;SDS011;13731;51.166;4.474;2023-02-04T06:38:28;109.82;;;94.93;;
25932;SDS011;13731;51.166;4.474;2023-02-04T06:40:55;109.13;;;97.07;;
25932;SDS011;13731;51.166;4.474;2023-02-04T06:43:21;113.88;;;101.45;;
25932;SDS011;13731;51.166;4.474;2023-02-04T06:45:49;111.70;;;97.30;;
25932;SDS011;13731;51.166;4.474;2023-02-04T06:48:16;113.93;;;98.40;;
25932;SDS011;13731;51.166;4.474;2023-02-04T06:50:42;112.38;;;100.55;;
25932;SDS011;13731;51.166;4.474;2023-02-04T06:53:08;117.05;;;103.60;;
25932;SDS011;13731;51.166;4.474;2023-02-04T06:55:34;113.70;;;100.82;;
25932;SDS011;13731;51.166;4.474;2023-02-04T06:58:00;112.95;;;100.68;;
25932;SDS011;13731;51.166;4.474;2023-02-04T07:00:26;118.00;;;102.82;;
25932;SDS011;13731;51.166;4.474;2023-02-04T07:02:52;115.72;;;103.80;;
25932;SDS011;13731;51.166;4.474;2023-02-04T07:05:18;120.82;;;108.10;;
25932;SDS011;13731;51.166;4.474;2023-02-04T07:07:44;119.93;;;107.10;;
25932;SDS011;13731;51.166;4.474;2023-02-04T07:10:10;119.72;;;107.40;;
25932;SDS011;13731;51.166;4.474;2023-02-04T07:12:35;114.90;;;101.78;;
25932;SDS011;13731;51.166;4.474;2023-02-04T07:15:01;117.32;;;104.97;;
25932;SDS011;13731;51.166;4.474;2023-02-04T07:17:27;115.10;;;103.70;;
25932;SDS011;13731;51.166;4.474;2023-02-04T07:19:53;112.72;;;101.55;;
25932;SDS011;13731;51.166;4.474;2023-02-04T07:22:19;116.72;;;104.80;;
25932;SDS011;13731;51.166;4.474;2023-02-04T07:24:45;112.00;;;100.30;;
25932;SDS011;13731;51.166;4.474;2023-02-04T07:27:11;107.90;;;93.50;;
25932;SDS011;13731;51.166;4.474;2023-02-04T07:29:37;105.38;;;94.35;;
25932;SDS011;13731;51.166;4.474;2023-02-04T07:32:03;106.72;;;90.95;;
25932;SDS011;13731;51.166;4.474;2023-02-04T07:34:29;108.20;;;92.45;;
25932;SDS011;13731;51.166;4.474;2023-02-04T07:36:55;121.07;;;98.38;;
25932;SDS011;13731;51.166;4.474;2023-02-04T07:39:21;120.72;;;94.07;;
25932;SDS011;13731;51.166;4.474;2023-02-04T07:41:46;120.55;;;93.78;;
25932;SDS011;13731;51.166;4.474;2023-02-04T07:44:19;126.53;;;90.70;;
25932;SDS011;13731;51.166;4.474;2023-02-04T07:46:45;136.85;;;95.78;;
25932;SDS011;13731;51.166;4.474;2023-02-04T07:49:11;131.73;;;87.25;;
25932;SDS011;13731;51.166;4.474;2023-02-04T07:51:37;133.23;;;91.35;;
25932;SDS011;13731;51.166;4.474;2023-02-04T07:54:02;150.10;;;94.68;;
25932;SDS011;13731;51.166;4.474;2023-02-04T07:56:28;145.50;;;98.60;;
25932;SDS011;13731;51.166;4.474;2023-02-04T07:58:54;144.63;;;99.97;;
25932;SDS011;13731;51.166;4.474;2023-02-04T08:01:20;146.13;;;92.65;;
25932;SDS011;13731;51.166;4.474;2023-02-04T08:03:46;141.57;;;108.20;;
25932;SDS011;13731;51.166;4.474;2023-02-04T08:06:12;147.85;;;93.32;;
25932;SDS011;13731;51.166;4.474;2023-02-04T08:08:38;144.52;;;95.88;;
25932;SDS011;13731;51.166;4.474;2023-02-04T08:11:05;141.15;;;93.07;;
25932;SDS011;13731;51.166;4.474;2023-02-04T08:13:31;144.38;;;90.43;;
25932;SDS011;13731;51.166;4.474;2023-02-04T08:15:57;145.18;;;92.45;;
25932;SDS011;13731;51.166;4.474;2023-02-04T08:18:23;135.60;;;89.78;;
25932;SDS011;13731;51.166;4.474;2023-02-04T08:20:49;138.35;;;94.30;;
25932;SDS011;13731;51.166;4.474;2023-02-04T08:23:15;116.70;;;88.53;;
25932;SDS011;13731;51.166;4.474;2023-02-04T08:25:41;107.50;;;84.60;;
25932;SDS011;13731;51.166;4.474;2023-02-04T08:28:09;118.90;;;91.85;;
25932;SDS011;13731;51.166;4.474;2023-02-04T08:30:35;108.47;;;83.75;;
25932;SDS011;13731;51.166;4.474;2023-02-04T08:33:01;103.28;;;88.50;;
25932;SDS011;13731;51.166;4.474;2023-02-04T08:35:27;96.00;;;77.68;;
25932;SDS011;13731;51.166;4.474;2023-02-04T08:37:53;101.78;;;80.47;;
25932;SDS011;13731;51.166;4.474;2023-02-04T08:40:19;117.30;;;83.22;;
25932;SDS011;13731;51.166;4.474;2023-02-04T08:42:45;107.25;;;78.85;;
25932;SDS011;13731;51.166;4.474;2023-02-04T08:45:11;110.22;;;85.47;;
25932;SDS011;13731;51.166;4.474;2023-02-04T08:47:37;113.95;;;85.35;;
25932;SDS011;13731;51.166;4.474;2023-02-04T08:50:02;94.40;;;75.05;;
25932;SDS011;13731;51.166;4.474;2023-02-04T08:52:28;92.50;;;75.38;;
25932;SDS011;13731;51.166;4.474;2023-02-04T08:54:54;97.30;;;74.05;;
25932;SDS011;13731;51.166;4.474;2023-02-04T08:57:20;94.30;;;79.70;;
25932;SDS011;13731;51.166;4.474;2023-02-04T08:59:46;91.53;;;76.03;;
25932;SDS011;13731;51.166;4.474;2023-02-04T09:02:12;93.40;;;72.70;;
25932;SDS011;13731;51.166;4.474;2023-02-04T09:04:38;94.43;;;73.85;;
25932;SDS011;13731;51.166;4.474;2023-02-04T09:07:04;84.30;;;74.70;;
25932;SDS011;13731;51.166;4.474;2023-02-04T09:09:30;90.10;;;72.25;;
25932;SDS011;13731;51.166;4.474;2023-02-04T09:11:55;87.22;;;77.78;;
25932;SDS011;13731;51.166;4.474;2023-02-04T09:14:21;82.78;;;73.80;;
25932;SDS011;13731;51.166;4.474;2023-02-04T09:16:47;85.78;;;74.78;;
25932;SDS011;13731;51.166;4.474;2023-02-04T09:19:13;86.47;;;77.15;;
25932;SDS011;13731;51.166;4.474;2023-02-04T09:21:40;100.20;;;81.03;;
25932;SDS011;13731;51.166;4.474;2023-02-04T09:24:07;106.60;;;84.32;;
25932;SDS011;13731;51.166;4.474;2023-02-04T09:26:33;109.85;;;86.07;;
25932;SDS011;13731;51.166;4.474;2023-02-04T09:28:58;105.28;;;83.90;;
25932;SDS011;13731;51.166;4.474;2023-02-04T09:31:24;100.72;;;89.40;;
25932;SDS011;13731;51.166;4.474;2023-02-04T09:33:50;101.70;;;84.28;;
25932;SDS011;13731;51.166;4.474;2023-02-04T09:36:16;99.90;;;84.25;;
25932;SDS011;13731;51.166;4.474;2023-02-04T09:38:42;92.80;;;79.88;;
25932;SDS011;13731;51.166;4.474;2023-02-04T09:41:09;96.80;;;86.68;;
25932;SDS011;13731;51.166;4.474;2023-02-04T09:43:38;90.43;;;81.93;;
25932;SDS011;13731;51.166;4.474;2023-02-04T09:48:37;95.60;;;86.43;;
25932;SDS011;13731;51.166;4.474;2023-02-04T09:51:04;111.75;;;102.15;;
25932;SDS011;13731;51.166;4.474;2023-02-04T09:53:31;100.57;;;90.93;;
25932;SDS011;13731;51.166;4.474;2023-02-04T09:55:58;100.15;;;91.53;;
25932;SDS011;13731;51.166;4.474;2023-02-04T09:58:25;96.90;;;88.32;;
25932;SDS011;13731;51.166;4.474;2023-02-04T10:00:57;114.75;;;105.80;;
25932;SDS011;13731;51.166;4.474;2023-02-04T10:03:25;95.60;;;87.45;;
25932;SDS011;13731;51.166;4.474;2023-02-04T10:05:51;90.72;;;82.88;;
25932;SDS011;13731;51.166;4.474;2023-02-04T10:08:18;83.40;;;76.28;;
25932;SDS011;13731;51.166;4.474;2023-02-04T10:10:47;83.82;;;76.35;;
25932;SDS011;13731;51.166;4.474;2023-02-04T10:13:15;86.10;;;78.63;;
25932;SDS011;13731;51.166;4.474;2023-02-04T10:15:45;89.65;;;81.90;;
25932;SDS011;13731;51.166;4.474;2023-02-04T10:18:46;92.30;;;83.88;;
25932;SDS011;13731;51.166;4.474;2023-02-04T10:23:42;89.50;;;82.32;;
25932;SDS011;13731;51.166;4.474;2023-02-04T10:26:12;97.30;;;89.47;;
25932;SDS011;13731;51.166;4.474;2023-02-04T10:28:39;94.45;;;87.20;;
25932;SDS011;13731;51.166;4.474;2023-02-04T10:31:08;89.53;;;82.50;;
25932;SDS011;13731;51.166;4.474;2023-02-04T10:36:38;92.13;;;84.95;;
25932;SDS011;13731;51.166;4.474;2023-02-04T10:39:08;87.93;;;80.40;;
25932;SDS011;13731;51.166;4.474;2023-02-04T10:44:33;88.93;;;81.70;;
25932;SDS011;13731;51.166;4.474;2023-02-04T10:47:13;98.30;;;90.53;;
25932;SDS011;13731;51.166;4.474;2023-02-04T10:52:20;88.60;;;81.30;;
25932;SDS011;13731;51.166;4.474;2023-02-04T10:54:48;89.20;;;81.78;;
25932;SDS011;13731;51.166;4.474;2023-02-04T10:57:19;84.53;;;77.85;;
25932;SDS011;13731;51.166;4.474;2023-02-04T10:59:52;89.88;;;83.13;;
25932;SDS011;13731;51.166;4.474;2023-02-04T11:05:28;90.80;;;84.40;;
25932;SDS011;13731;51.166;4.474;2023-02-04T11:07:56;87.38;;;80.97;;
25932;SDS011;13731;51.166;4.474;2023-02-04T11:10:23;90.10;;;83.82;;
25932;SDS011;13731;51.166;4.474;2023-02-04T11:20:47;87.13;;;81.53;;
25932;SDS011;13731;51.166;4.474;2023-02-04T11:26:02;82.10;;;77.25;;
25932;SDS011;13731;51.166;4.474;2023-02-04T11:28:47;79.72;;;74.65;;
25932;SDS011;13731;51.166;4.474;2023-02-04T11:39:21;69.35;;;65.10;;
25932;SDS011;13731;51.166;4.474;2023-02-04T11:41:50;66.40;;;62.17;;
25932;SDS011;13731;51.166;4.474;2023-02-04T11:44:16;61.22;;;57.40;;
25932;SDS011;13731;51.166;4.474;2023-02-04T11:46:48;69.47;;;65.13;;
25932;SDS011;13731;51.166;4.474;2023-02-04T11:49:18;65.43;;;61.10;;
25932;SDS011;13731;51.166;4.474;2023-02-04T11:51:45;69.05;;;64.68;;
25932;SDS011;13731;51.166;4.474;2023-02-04T11:54:12;71.60;;;66.70;;
25932;SDS011;13731;51.166;4.474;2023-02-04T11:56:40;70.30;;;65.90;;
25932;SDS011;13731;51.166;4.474;2023-02-04T11:59:08;66.22;;;62.05;;
25932;SDS011;13731;51.166;4.474;2023-02-04T12:01:36;66.70;;;62.90;;
25932;SDS011;13731;51.166;4.474;2023-02-04T12:04:03;63.25;;;59.40;;
25932;SDS011;13731;51.166;4.474;2023-02-04T12:06:32;63.55;;;60.00;;
25932;SDS011;13731;51.166;4.474;2023-02-04T12:09:08;64.85;;;60.78;;
25932;SDS011;13731;51.166;4.474;2023-02-04T12:11:55;52.50;;;49.88;;
25932;SDS011;13731;51.166;4.474;2023-02-04T12:14:26;56.40;;;53.42;;
25932;SDS011;13731;51.166;4.474;2023-02-04T12:16:56;54.33;;;51.45;;
25932;SDS011;13731;51.166;4.474;2023-02-04T12:19:22;55.05;;;51.97;;
25932;SDS011;13731;51.166;4.474;2023-02-04T12:21:48;57.83;;;54.70;;
25932;SDS011;13731;51.166;4.474;2023-02-04T12:24:14;55.58;;;52.25;;
25932;SDS011;13731;51.166;4.474;2023-02-04T12:26:40;56.30;;;53.33;;
25932;SDS011;13731;51.166;4.474;2023-02-04T12:29:07;57.40;;;54.05;;
25932;SDS011;13731;51.166;4.474;2023-02-04T12:31:33;59.33;;;56.03;;
25932;SDS011;13731;51.166;4.474;2023-02-04T12:34:00;56.95;;;53.67;;
25932;SDS011;13731;51.166;4.474;2023-02-04T12:36:26;57.85;;;54.53;;
25932;SDS011;13731;51.166;4.474;2023-02-04T12:38:54;57.95;;;54.67;;
25932;SDS011;13731;51.166;4.474;2023-02-04T12:41:23;60.55;;;56.97;;
25932;SDS011;13731;51.166;4.474;2023-02-04T12:43:49;62.00;;;58.00;;
25932;SDS011;13731;51.166;4.474;2023-02-04T12:46:15;59.25;;;55.78;;
25932;SDS011;13731;51.166;4.474;2023-02-04T12:48:41;58.10;;;54.63;;
25932;SDS011;13731;51.166;4.474;2023-02-04T12:51:08;65.95;;;61.70;;
25932;SDS011;13731;51.166;4.474;2023-02-04T12:53:34;59.47;;;55.65;;
25932;SDS011;13731;51.166;4.474;2023-02-04T12:56:00;61.25;;;57.50;;
25932;SDS011;13731;51.166;4.474;2023-02-04T12:58:26;62.47;;;58.67;;
25932;SDS011;13731;51.166;4.474;2023-02-04T13:00:54;82.75;;;77.95;;
25932;SDS011;13731;51.166;4.474;2023-02-04T13:03:20;64.18;;;60.50;;
25932;SDS011;13731;51.166;4.474;2023-02-04T13:05:47;67.75;;;63.72;;
25932;SDS011;13731;51.166;4.474;2023-02-04T13:08:13;62.35;;;58.75;;
25932;SDS011;13731;51.166;4.474;2023-02-04T13:10:39;67.93;;;63.85;;
25932;SDS011;13731;51.166;4.474;2023-02-04T13:13:05;70.78;;;66.43;;
25932;SDS011;13731;51.166;4.474;2023-02-04T13:15:31;82.80;;;78.15;;
25932;SDS011;13731;51.166;4.474;2023-02-04T13:17:57;72.40;;;68.07;;
25932;SDS011;13731;51.166;4.474;2023-02-04T13:20:23;71.78;;;67.57;;
25932;SDS011;13731;51.166;4.474;2023-02-04T13:22:49;73.85;;;69.63;;
25932;SDS011;13731;51.166;4.474;2023-02-04T13:25:14;68.45;;;64.43;;
25932;SDS011;13731;51.166;4.474;2023-02-04T13:27:40;73.20;;;69.07;;
25932;SDS011;13731;51.166;4.474;2023-02-04T13:30:07;71.13;;;67.07;;
25932;SDS011;13731;51.166;4.474;2023-02-04T13:32:35;73.15;;;68.70;;
25932;SDS011;13731;51.166;4.474;2023-02-04T13:35:01;76.50;;;72.28;;
25932;SDS011;13731;51.166;4.474;2023-02-04T13:37:27;72.85;;;68.53;;
25932;SDS011;13731;51.166;4.474;2023-02-04T13:39:52;67.43;;;63.33;;
25932;SDS011;13731;51.166;4.474;2023-02-04T13:42:18;60.67;;;56.88;;
25932;SDS011;13731;51.166;4.474;2023-02-04T13:44:44;59.92;;;56.38;;
25932;SDS011;13731;51.166;4.474;2023-02-04T13:47:10;54.75;;;51.47;;
25932;SDS011;13731;51.166;4.474;2023-02-04T13:49:36;53.80;;;50.42;;
25932;SDS011;13731;51.166;4.474;2023-02-04T13:52:02;56.38;;;52.65;;
25932;SDS011;13731;51.166;4.474;2023-02-04T13:54:27;58.95;;;55.28;;
25932;SDS011;13731;51.166;4.474;2023-02-04T13:56:53;55.40;;;51.70;;
25932;SDS011;13731;51.166;4.474;2023-02-04T13:59:19;54.00;;;50.47;;
25932;SDS011;13731;51.166;4.474;2023-02-04T14:01:45;60.33;;;56.63;;
25932;SDS011;13731;51.166;4.474;2023-02-04T14:04:11;61.92;;;57.80;;
25932;SDS011;13731;51.166;4.474;2023-02-04T14:06:36;57.10;;;53.60;;
25932;SDS011;13731;51.166;4.474;2023-02-04T14:09:08;57.50;;;53.70;;
25932;SDS011;13731;51.166;4.474;2023-02-04T14:11:35;60.72;;;56.70;;
25932;SDS011;13731;51.166;4.474;2023-02-04T14:14:01;61.58;;;57.95;;
25932;SDS011;13731;51.166;4.474;2023-02-04T14:16:27;62.08;;;58.28;;
25932;SDS011;13731;51.166;4.474;2023-02-04T14:18:53;60.35;;;56.47;;
25932;SDS011;13731;51.166;4.474;2023-02-04T14:21:19;66.57;;;62.80;;
25932;SDS011;13731;51.166;4.474;2023-02-04T14:23:45;70.82;;;66.85;;
25932;SDS011;13731;51.166;4.474;2023-02-04T14:26:10;76.32;;;71.75;;
25932;SDS011;13731;51.166;4.474;2023-02-04T14:28:36;72.50;;;68.05;;
25932;SDS011;13731;51.166;4.474;2023-02-04T14:31:02;75.07;;;70.65;;
25932;SDS011;13731;51.166;4.474;2023-02-04T14:33:28;76.38;;;72.00;;
25932;SDS011;13731;51.166;4.474;2023-02-04T14:35:54;75.78;;;71.35;;
25932;SDS011;13731;51.166;4.474;2023-02-04T14:38:20;60.95;;;57.28;;
25932;SDS011;13731;51.166;4.474;2023-02-04T14:40:46;55.05;;;51.35;;
25932;SDS011;13731;51.166;4.474;2023-02-04T14:43:12;55.53;;;51.65;;
25932;SDS011;13731;51.166;4.474;2023-02-04T14:45:38;57.10;;;53.30;;
25932;SDS011;13731;51.166;4.474;2023-02-04T14:48:05;59.58;;;55.78;;
25932;SDS011;13731;51.166;4.474;2023-02-04T14:50:31;52.92;;;49.65;;
25932;SDS011;13731;51.166;4.474;2023-02-04T14:52:57;50.70;;;47.50;;